sensor_id;sensor_type;location;lat;lon;timestamp;temperature;humidity
33095;DHT22;19459;53.044;8.910;2023-06-14T00:02:11;16.40;94.90
33095;DHT22;19459;53.044;8.910;2023-06-14T00:04:37;16.40;95.20
33095;DHT22;19459;53.044;8.910;2023-06-14T00:07:05;16.30;95.30
33095;DHT22;19459;53.044;8.910;2023-06-14T00:09:34;16.20;95.70
33095;DHT22;19459;53.044;8.910;2023-06-14T00:12:00;16.20;95.90
33095;DHT22;19459;53.044;8.910;2023-06-14T00:14:26;16.10;96.10
33095;DHT22;19459;53.044;8.910;2023-06-14T00:16:52;16.10;96.30
33095;DHT22;19459;53.044;8.910;2023-06-14T00:19:18;16.00;96.60
33095;DHT22;19459;53.044;8.910;2023-06-14T00:21:45;16.00;96.80
33095;DHT22;19459;53.044;8.910;2023-06-14T00:24:11;16.00;97.20
33095;DHT22;19459;53.044;8.910;2023-06-14T00:26:37;16.00;97.20
33095;DHT22;19459;53.044;8.910;2023-06-14T00:29:02;15.90;97.50
33095;DHT22;19459;53.044;8.910;2023-06-14T00:31:28;15.90;97.70
33095;DHT22;19459;53.044;8.910;2023-06-14T00:33:54;15.90;98.00
33095;DHT22;19459;53.044;8.910;2023-06-14T00:36:20;15.90;98.10
33095;DHT22;19459;53.044;8.910;2023-06-14T00:38:46;15.80;98.60
33095;DHT22;19459;53.044;8.910;2023-06-14T00:41:11;15.80;98.90
33095;DHT22;19459;53.044;8.910;2023-06-14T00:43:37;15.80;98.80
33095;DHT22;19459;53.044;8.910;2023-06-14T00:46:03;15.80;99.00
33095;DHT22;19459;53.044;8.910;2023-06-14T00:48:29;15.70;99.40
33095;DHT22;19459;53.044;8.910;2023-06-14T00:50:56;15.70;99.50
33095;DHT22;19459;53.044;8.910;2023-06-14T00:53:22;15.70;99.80
33095;DHT22;19459;53.044;8.910;2023-06-14T00:55:50;15.70;99.90
33095;DHT22;19459;53.044;8.910;2023-06-14T00:58:16;15.60;99.90
33095;DHT22;19459;53.044;8.910;2023-06-14T01:00:42;15.60;99.90
33095;DHT22;19459;53.044;8.910;2023-06-14T01:03:08;15.60;99.90
33095;DHT22;19459;53.044;8.910;2023-06-14T01:05:37;15.60;99.90
33095;DHT22;19459;53.044;8.910;2023-06-14T01:08:28;15.50;99.90
33095;DHT22;19459;53.044;8.910;2023-06-14T01:11:14;15.50;99.90
33095;DHT22;19459;53.044;8.910;2023-06-14T01:13:45;15.50;99.90
33095;DHT22;19459;53.044;8.910;2023-06-14T01:16:12;15.50;99.90
33095;DHT22;19459;53.044;8.910;2023-06-14T01:18:38;15.50;99.90
33095;DHT22;19459;53.044;8.910;2023-06-14T01:21:04;15.50;99.90
33095;DHT22;19459;53.044;8.910;2023-06-14T01:23:31;15.50;99.90
33095;DHT22;19459;53.044;8.910;2023-06-14T01:25:57;15.40;99.90
33095;DHT22;19459;53.044;8.910;2023-06-14T01:28:24;15.40;99.90
33095;DHT22;19459;53.044;8.910;2023-06-14T01:30:53;15.30;99.90
33095;DHT22;19459;53.044;8.910;2023-06-14T01:33:26;15.30;99.90
33095;DHT22;19459;53.044;8.910;2023-06-14T01:35:53;15.30;99.90
33095;DHT22;19459;53.044;8.910;2023-06-14T01:38:25;15.30;99.90
33095;DHT22;19459;53.044;8.910;2023-06-14T01:40:54;15.20;99.90
33095;DHT22;19459;53.044;8.910;2023-06-14T01:43:21;15.30;99.90
33095;DHT22;19459;53.044;8.910;2023-06-14T01:45:48;15.30;99.90
33095;DHT22;19459;53.044;8.910;2023-06-14T01:48:15;15.20;99.90
33095;DHT22;19459;53.044;8.910;2023-06-14T01:50:41;15.20;99.90
33095;DHT22;19459;53.044;8.910;2023-06-14T01:53:08;15.10;99.90
33095;DHT22;19459;53.044;8.910;2023-06-14T01:55:34;15.10;99.90
33095;DHT22;19459;53.044;8.910;2023-06-14T01:58:03;15.10;99.90
33095;DHT22;19459;53.044;8.910;2023-06-14T02:00:30;15.10;99.90
33095;DHT22;19459;53.044;8.910;2023-06-14T02:02:56;15.00;99.90
33095;DHT22;19459;53.044;8.910;2023-06-14T02:05:22;15.00;99.90
33095;DHT22;19459;53.044;8.910;2023-06-14T02:07:48;15.00;99.90
33095;DHT22;19459;53.044;8.910;2023-06-14T02:10:14;15.00;99.90
33095;DHT22;19459;53.044;8.910;2023-06-14T02:12:41;14.90;99.90
33095;DHT22;19459;53.044;8.910;2023-06-14T02:15:07;14.90;99.90
33095;DHT22;19459;53.044;8.910;2023-06-14T02:17:33;14.90;99.90
33095;DHT22;19459;53.044;8.910;2023-06-14T02:19:59;14.90;99.90
33095;DHT22;19459;53.044;8.910;2023-06-14T02:22:26;14.90;99.90
33095;DHT22;19459;53.044;8.910;2023-06-14T02:24:51;14.90;99.90
33095;DHT22;19459;53.044;8.910;2023-06-14T02:27:18;14.80;99.90
33095;DHT22;19459;53.044;8.910;2023-06-14T02:29:43;14.80;99.90
33095;DHT22;19459;53.044;8.910;2023-06-14T02:32:10;14.80;99.90
33095;DHT22;19459;53.044;8.910;2023-06-14T02:34:36;14.70;99.90
33095;DHT22;19459;53.044;8.910;2023-06-14T02:37:02;14.70;99.90
33095;DHT22;19459;53.044;8.910;2023-06-14T02:39:29;14.70;99.90
33095;DHT22;19459;53.044;8.910;2023-06-14T02:41:55;14.60;99.90
33095;DHT22;19459;53.044;8.910;2023-06-14T02:44:24;14.60;99.90
33095;DHT22;19459;53.044;8.910;2023-06-14T02:46:54;14.60;99.90
33095;DHT22;19459;53.044;8.910;2023-06-14T02:49:21;14.60;99.90
33095;DHT22;19459;53.044;8.910;2023-06-14T02:51:48;14.50;99.90
33095;DHT22;19459;53.044;8.910;2023-06-14T02:54:13;14.50;99.90
33095;DHT22;19459;53.044;8.910;2023-06-14T02:56:39;14.50;99.90
33095;DHT22;19459;53.044;8.910;2023-06-14T02:59:06;14.40;99.90
33095;DHT22;19459;53.044;8.910;2023-06-14T03:01:35;14.40;99.90
33095;DHT22;19459;53.044;8.910;2023-06-14T03:04:04;14.40;99.90
33095;DHT22;19459;53.044;8.910;2023-06-14T03:06:30;14.40;99.90
33095;DHT22;19459;53.044;8.910;2023-06-14T03:08:59;14.40;99.90
33095;DHT22;19459;53.044;8.910;2023-06-14T03:11:27;14.30;99.90
33095;DHT22;19459;53.044;8.910;2023-06-14T03:13:53;14.30;99.90
33095;DHT22;19459;53.044;8.910;2023-06-14T03:16:19;14.30;99.90
33095;DHT22;19459;53.044;8.910;2023-06-14T03:18:48;14.20;99.90
33095;DHT22;19459;53.044;8.910;2023-06-14T03:21:18;14.20;99.90
33095;DHT22;19459;53.044;8.910;2023-06-14T03:23:45;14.20;99.90
33095;DHT22;19459;53.044;8.910;2023-06-14T03:26:12;14.20;99.90
33095;DHT22;19459;53.044;8.910;2023-06-14T03:28:39;14.20;99.90
33095;DHT22;19459;53.044;8.910;2023-06-14T03:31:06;14.20;99.90
33095;DHT22;19459;53.044;8.910;2023-06-14T03:33:32;14.20;99.90
33095;DHT22;19459;53.044;8.910;2023-06-14T03:35:58;14.10;99.90
33095;DHT22;19459;53.044;8.910;2023-06-14T03:38:24;14.20;99.90
33095;DHT22;19459;53.044;8.910;2023-06-14T03:40:49;14.20;99.90
33095;DHT22;19459;53.044;8.910;2023-06-14T03:43:15;14.10;99.90
33095;DHT22;19459;53.044;8.910;2023-06-14T03:45:41;14.10;99.90
33095;DHT22;19459;53.044;8.910;2023-06-14T03:48:06;14.10;99.90
33095;DHT22;19459;53.044;8.910;2023-06-14T03:50:34;14.10;99.90
33095;DHT22;19459;53.044;8.910;2023-06-14T03:53:00;14.10;99.90
33095;DHT22;19459;53.044;8.910;2023-06-14T03:55:26;14.10;99.90
33095;DHT22;19459;53.044;8.910;2023-06-14T03:57:53;14.10;99.90
33095;DHT22;19459;53.044;8.910;2023-06-14T04:00:18;14.20;99.90
33095;DHT22;19459;53.044;8.910;2023-06-14T04:02:45;14.20;99.90
33095;DHT22;19459;53.044;8.910;2023-06-14T04:05:11;14.10;99.90
33095;DHT22;19459;53.044;8.910;2023-06-14T04:07:36;14.20;99.90
33095;DHT22;19459;53.044;8.910;2023-06-14T04:10:07;14.20;99.90
33095;DHT22;19459;53.044;8.910;2023-06-14T04:12:36;14.20;99.90
33095;DHT22;19459;53.044;8.910;2023-06-14T04:15:02;14.20;99.90
33095;DHT22;19459;53.044;8.910;2023-06-14T04:17:31;14.20;99.90
33095;DHT22;19459;53.044;8.910;2023-06-14T04:19:59;14.20;99.90
33095;DHT22;19459;53.044;8.910;2023-06-14T04:22:26;14.20;99.90
33095;DHT22;19459;53.044;8.910;2023-06-14T04:24:57;14.20;99.90
33095;DHT22;19459;53.044;8.910;2023-06-14T04:27:23;14.20;99.90
33095;DHT22;19459;53.044;8.910;2023-06-14T04:29:54;14.20;99.90
33095;DHT22;19459;53.044;8.910;2023-06-14T04:32:27;14.20;99.90
33095;DHT22;19459;53.044;8.910;2023-06-14T04:34:58;14.30;99.90
33095;DHT22;19459;53.044;8.910;2023-06-14T04:37:25;14.30;99.90
33095;DHT22;19459;53.044;8.910;2023-06-14T04:39:54;14.40;99.90
33095;DHT22;19459;53.044;8.910;2023-06-14T04:42:24;14.40;99.90
33095;DHT22;19459;53.044;8.910;2023-06-14T04:44:51;14.40;99.90
33095;DHT22;19459;53.044;8.910;2023-06-14T04:47:20;14.50;99.90
33095;DHT22;19459;53.044;8.910;2023-06-14T04:49:46;14.60;99.90
33095;DHT22;19459;53.044;8.910;2023-06-14T04:52:13;14.60;99.90
33095;DHT22;19459;53.044;8.910;2023-06-14T04:54:39;14.70;99.90
33095;DHT22;19459;53.044;8.910;2023-06-14T04:57:09;14.80;99.90
33095;DHT22;19459;53.044;8.910;2023-06-14T04:59:39;14.90;99.90
33095;DHT22;19459;53.044;8.910;2023-06-14T05:02:05;14.90;99.90
33095;DHT22;19459;53.044;8.910;2023-06-14T05:04:32;15.00;99.90
33095;DHT22;19459;53.044;8.910;2023-06-14T05:06:58;15.10;99.90
33095;DHT22;19459;53.044;8.910;2023-06-14T05:09:24;15.10;99.90
33095;DHT22;19459;53.044;8.910;2023-06-14T05:11:50;15.20;99.90
33095;DHT22;19459;53.044;8.910;2023-06-14T05:14:16;15.30;99.90
33095;DHT22;19459;53.044;8.910;2023-06-14T05:16:42;15.40;99.90
33095;DHT22;19459;53.044;8.910;2023-06-14T05:19:08;15.50;99.90
33095;DHT22;19459;53.044;8.910;2023-06-14T05:21:36;15.50;99.90
33095;DHT22;19459;53.044;8.910;2023-06-14T05:24:02;15.60;99.90
33095;DHT22;19459;53.044;8.910;2023-06-14T05:26:28;15.80;99.90
33095;DHT22;19459;53.044;8.910;2023-06-14T05:28:56;15.80;99.90
33095;DHT22;19459;53.044;8.910;2023-06-14T05:31:25;15.90;99.90
33095;DHT22;19459;53.044;8.910;2023-06-14T05:33:51;16.00;99.90
33095;DHT22;19459;53.044;8.910;2023-06-14T05:36:19;16.10;99.90
33095;DHT22;19459;53.044;8.910;2023-06-14T05:38:46;16.20;99.90
33095;DHT22;19459;53.044;8.910;2023-06-14T05:41:12;16.40;99.90
33095;DHT22;19459;53.044;8.910;2023-06-14T05:43:38;16.40;99.90
33095;DHT22;19459;53.044;8.910;2023-06-14T05:46:04;16.50;99.90
33095;DHT22;19459;53.044;8.910;2023-06-14T05:48:30;16.60;99.90
33095;DHT22;19459;53.044;8.910;2023-06-14T05:50:56;16.60;99.90
33095;DHT22;19459;53.044;8.910;2023-06-14T05:53:22;16.70;99.90
33095;DHT22;19459;53.044;8.910;2023-06-14T05:55:49;16.70;99.90
33095;DHT22;19459;53.044;8.910;2023-06-14T05:58:17;16.80;99.90
33095;DHT22;19459;53.044;8.910;2023-06-14T06:00:42;16.80;99.90
33095;DHT22;19459;53.044;8.910;2023-06-14T06:03:08;16.80;99.90
33095;DHT22;19459;53.044;8.910;2023-06-14T06:05:34;16.80;99.90
33095;DHT22;19459;53.044;8.910;2023-06-14T06:08:00;16.80;99.90
33095;DHT22;19459;53.044;8.910;2023-06-14T06:10:26;16.90;99.90
33095;DHT22;19459;53.044;8.910;2023-06-14T06:12:52;16.90;99.90
33095;DHT22;19459;53.044;8.910;2023-06-14T06:15:20;17.00;99.90
33095;DHT22;19459;53.044;8.910;2023-06-14T06:17:46;17.10;99.90
33095;DHT22;19459;53.044;8.910;2023-06-14T06:20:12;17.20;99.90
33095;DHT22;19459;53.044;8.910;2023-06-14T06:22:38;17.30;99.90
33095;DHT22;19459;53.044;8.910;2023-06-14T06:25:04;17.30;99.90
33095;DHT22;19459;53.044;8.910;2023-06-14T06:27:30;17.40;99.90
33095;DHT22;19459;53.044;8.910;2023-06-14T06:29:56;17.50;99.90
33095;DHT22;19459;53.044;8.910;2023-06-14T06:32:21;17.70;99.90
33095;DHT22;19459;53.044;8.910;2023-06-14T06:34:47;17.80;99.90
33095;DHT22;19459;53.044;8.910;2023-06-14T06:37:13;18.00;99.90
33095;DHT22;19459;53.044;8.910;2023-06-14T06:39:39;18.10;99.90
33095;DHT22;19459;53.044;8.910;2023-06-14T06:42:05;18.20;99.90
33095;DHT22;19459;53.044;8.910;2023-06-14T06:44:32;18.30;99.90
33095;DHT22;19459;53.044;8.910;2023-06-14T06:46:58;18.40;99.90
33095;DHT22;19459;53.044;8.910;2023-06-14T06:49:24;18.50;99.90
33095;DHT22;19459;53.044;8.910;2023-06-14T06:52:03;18.70;99.90
33095;DHT22;19459;53.044;8.910;2023-06-14T06:54:31;18.80;99.90
33095;DHT22;19459;53.044;8.910;2023-06-14T06:56:57;18.90;99.90
33095;DHT22;19459;53.044;8.910;2023-06-14T06:59:23;19.10;99.50
33095;DHT22;19459;53.044;8.910;2023-06-14T07:01:49;19.20;97.60
33095;DHT22;19459;53.044;8.910;2023-06-14T07:04:15;19.30;97.80
33095;DHT22;19459;53.044;8.910;2023-06-14T07:06:42;19.40;96.90
33095;DHT22;19459;53.044;8.910;2023-06-14T07:09:08;19.50;96.80
33095;DHT22;19459;53.044;8.910;2023-06-14T07:11:38;19.60;96.30
33095;DHT22;19459;53.044;8.910;2023-06-14T07:14:05;19.80;96.60
33095;DHT22;19459;53.044;8.910;2023-06-14T07:16:31;19.90;95.00
33095;DHT22;19459;53.044;8.910;2023-06-14T07:18:57;20.00;96.00
33095;DHT22;19459;53.044;8.910;2023-06-14T07:21:23;20.10;95.70
33095;DHT22;19459;53.044;8.910;2023-06-14T07:23:51;20.30;95.60
33095;DHT22;19459;53.044;8.910;2023-06-14T07:26:18;20.40;95.10
33095;DHT22;19459;53.044;8.910;2023-06-14T07:28:44;20.60;94.80
33095;DHT22;19459;53.044;8.910;2023-06-14T07:31:13;20.70;94.70
33095;DHT22;19459;53.044;8.910;2023-06-14T07:33:40;20.90;94.70
33095;DHT22;19459;53.044;8.910;2023-06-14T07:36:06;21.00;93.20
33095;DHT22;19459;53.044;8.910;2023-06-14T07:38:32;21.10;93.30
33095;DHT22;19459;53.044;8.910;2023-06-14T07:40:58;21.10;92.80
33095;DHT22;19459;53.044;8.910;2023-06-14T07:43:25;21.30;93.30
33095;DHT22;19459;53.044;8.910;2023-06-14T07:45:50;21.40;91.70
33095;DHT22;19459;53.044;8.910;2023-06-14T07:48:16;21.30;91.40
33095;DHT22;19459;53.044;8.910;2023-06-14T07:50:42;21.40;91.90
33095;DHT22;19459;53.044;8.910;2023-06-14T07:53:08;21.60;91.80
33095;DHT22;19459;53.044;8.910;2023-06-14T07:55:34;21.80;92.50
33095;DHT22;19459;53.044;8.910;2023-06-14T07:58:02;22.00;92.40
33095;DHT22;19459;53.044;8.910;2023-06-14T08:00:28;22.10;91.30
33095;DHT22;19459;53.044;8.910;2023-06-14T08:02:55;22.40;91.60
33095;DHT22;19459;53.044;8.910;2023-06-14T08:05:24;22.50;90.40
33095;DHT22;19459;53.044;8.910;2023-06-14T08:07:54;22.60;90.70
33095;DHT22;19459;53.044;8.910;2023-06-14T08:10:20;22.60;88.10
33095;DHT22;19459;53.044;8.910;2023-06-14T08:12:47;22.60;88.40
33095;DHT22;19459;53.044;8.910;2023-06-14T08:15:15;22.60;89.30
33095;DHT22;19459;53.044;8.910;2023-06-14T08:17:45;22.80;88.60
33095;DHT22;19459;53.044;8.910;2023-06-14T08:20:12;22.70;88.30
33095;DHT22;19459;53.044;8.910;2023-06-14T08:22:39;22.90;87.90
33095;DHT22;19459;53.044;8.910;2023-06-14T08:25:08;23.10;90.00
33095;DHT22;19459;53.044;8.910;2023-06-14T08:27:34;23.40;89.80
33095;DHT22;19459;53.044;8.910;2023-06-14T08:30:00;23.60;87.30
33095;DHT22;19459;53.044;8.910;2023-06-14T08:32:26;23.70;89.10
33095;DHT22;19459;53.044;8.910;2023-06-14T08:34:52;23.70;87.40
33095;DHT22;19459;53.044;8.910;2023-06-14T08:37:18;24.00;87.40
33095;DHT22;19459;53.044;8.910;2023-06-14T08:39:44;24.00;86.90
33095;DHT22;19459;53.044;8.910;2023-06-14T08:42:10;24.10;85.40
33095;DHT22;19459;53.044;8.910;2023-06-14T08:44:37;24.20;86.10
33095;DHT22;19459;53.044;8.910;2023-06-14T08:47:04;24.60;87.20
33095;DHT22;19459;53.044;8.910;2023-06-14T08:49:31;24.80;85.30
33095;DHT22;19459;53.044;8.910;2023-06-14T08:51:59;25.00;86.10
33095;DHT22;19459;53.044;8.910;2023-06-14T08:54:27;25.10;86.80
33095;DHT22;19459;53.044;8.910;2023-06-14T08:56:59;25.00;84.10
33095;DHT22;19459;53.044;8.910;2023-06-14T08:59:26;25.10;85.90
33095;DHT22;19459;53.044;8.910;2023-06-14T09:01:53;25.10;84.30
33095;DHT22;19459;53.044;8.910;2023-06-14T09:04:20;25.00;83.70
33095;DHT22;19459;53.044;8.910;2023-06-14T09:06:55;25.00;86.20
33095;DHT22;19459;53.044;8.910;2023-06-14T09:09:22;25.30;85.40
33095;DHT22;19459;53.044;8.910;2023-06-14T09:11:54;25.60;83.30
33095;DHT22;19459;53.044;8.910;2023-06-14T09:14:23;25.70;82.80
33095;DHT22;19459;53.044;8.910;2023-06-14T09:16:53;25.60;82.40
33095;DHT22;19459;53.044;8.910;2023-06-14T09:19:25;25.90;85.10
33095;DHT22;19459;53.044;8.910;2023-06-14T09:21:52;26.00;83.30
33095;DHT22;19459;53.044;8.910;2023-06-14T09:24:19;26.00;81.50
33095;DHT22;19459;53.044;8.910;2023-06-14T09:26:50;26.30;83.20
33095;DHT22;19459;53.044;8.910;2023-06-14T09:29:17;26.60;82.30
33095;DHT22;19459;53.044;8.910;2023-06-14T09:31:45;26.50;81.20
33095;DHT22;19459;53.044;8.910;2023-06-14T09:34:11;26.50;83.10
33095;DHT22;19459;53.044;8.910;2023-06-14T09:36:39;26.40;80.10
33095;DHT22;19459;53.044;8.910;2023-06-14T09:39:08;26.60;81.70
33095;DHT22;19459;53.044;8.910;2023-06-14T09:41:41;26.70;82.90
33095;DHT22;19459;53.044;8.910;2023-06-14T09:44:09;26.70;79.80
33095;DHT22;19459;53.044;8.910;2023-06-14T09:46:37;27.10;80.30
33095;DHT22;19459;53.044;8.910;2023-06-14T09:49:05;27.20;79.30
33095;DHT22;19459;53.044;8.910;2023-06-14T09:51:31;26.80;77.30
33095;DHT22;19459;53.044;8.910;2023-06-14T09:54:04;26.80;80.30
33095;DHT22;19459;53.044;8.910;2023-06-14T09:56:34;26.80;79.90
33095;DHT22;19459;53.044;8.910;2023-06-14T09:59:05;26.90;80.60
33095;DHT22;19459;53.044;8.910;2023-06-14T10:01:33;27.10;79.30
33095;DHT22;19459;53.044;8.910;2023-06-14T10:04:04;27.20;78.90
33095;DHT22;19459;53.044;8.910;2023-06-14T10:06:36;27.30;79.40
33095;DHT22;19459;53.044;8.910;2023-06-14T10:09:04;26.70;76.30
33095;DHT22;19459;53.044;8.910;2023-06-14T10:11:35;27.00;78.50
33095;DHT22;19459;53.044;8.910;2023-06-14T10:14:02;27.20;78.20
33095;DHT22;19459;53.044;8.910;2023-06-14T10:16:42;27.30;78.20
33095;DHT22;19459;53.044;8.910;2023-06-14T10:19:33;27.20;77.00
33095;DHT22;19459;53.044;8.910;2023-06-14T10:22:12;27.10;79.70
33095;DHT22;19459;53.044;8.910;2023-06-14T10:24:46;27.20;78.00
33095;DHT22;19459;53.044;8.910;2023-06-14T10:27:14;26.80;77.10
33095;DHT22;19459;53.044;8.910;2023-06-14T10:32:24;27.10;78.80
33095;DHT22;19459;53.044;8.910;2023-06-14T10:34:58;27.40;78.00
33095;DHT22;19459;53.044;8.910;2023-06-14T10:37:30;27.60;77.90
33095;DHT22;19459;53.044;8.910;2023-06-14T10:39:56;28.10;79.60
33095;DHT22;19459;53.044;8.910;2023-06-14T10:42:22;28.70;79.60
33095;DHT22;19459;53.044;8.910;2023-06-14T10:44:55;28.40;76.60
33095;DHT22;19459;53.044;8.910;2023-06-14T10:49:56;28.60;76.90
33095;DHT22;19459;53.044;8.910;2023-06-14T10:52:28;28.50;77.80
33095;DHT22;19459;53.044;8.910;2023-06-14T10:55:11;28.30;76.10
33095;DHT22;19459;53.044;8.910;2023-06-14T10:57:55;28.00;76.20
33095;DHT22;19459;53.044;8.910;2023-06-14T11:00:23;27.20;75.60
33095;DHT22;19459;53.044;8.910;2023-06-14T11:06:22;27.10;76.30
33095;DHT22;19459;53.044;8.910;2023-06-14T11:09:13;26.80;77.90
33095;DHT22;19459;53.044;8.910;2023-06-14T11:11:48;27.20;77.20
33095;DHT22;19459;53.044;8.910;2023-06-14T11:14:14;27.10;76.40
33095;DHT22;19459;53.044;8.910;2023-06-14T11:16:41;26.70;76.80
33095;DHT22;19459;53.044;8.910;2023-06-14T11:19:07;26.60;78.00
33095;DHT22;19459;53.044;8.910;2023-06-14T11:21:33;27.10;78.20
33095;DHT22;19459;53.044;8.910;2023-06-14T11:23:59;27.30;77.60
33095;DHT22;19459;53.044;8.910;2023-06-14T11:26:29;27.60;75.30
33095;DHT22;19459;53.044;8.910;2023-06-14T11:28:59;27.20;74.60
33095;DHT22;19459;53.044;8.910;2023-06-14T11:31:27;27.30;75.50
33095;DHT22;19459;53.044;8.910;2023-06-14T11:33:55;27.90;78.00
33095;DHT22;19459;53.044;8.910;2023-06-14T11:36:22;28.50;77.50
33095;DHT22;19459;53.044;8.910;2023-06-14T11:38:49;29.00;75.50
33095;DHT22;19459;53.044;8.910;2023-06-14T11:41:15;29.50;74.40
33095;DHT22;19459;53.044;8.910;2023-06-14T11:43:41;29.60;73.80
33095;DHT22;19459;53.044;8.910;2023-06-14T11:46:13;29.50;71.00
33095;DHT22;19459;53.044;8.910;2023-06-14T11:48:44;29.90;72.80
33095;DHT22;19459;53.044;8.910;2023-06-14T11:51:10;29.60;70.20
33095;DHT22;19459;53.044;8.910;2023-06-14T11:53:36;29.20;71.40
33095;DHT22;19459;53.044;8.910;2023-06-14T11:56:02;30.00;73.90
33095;DHT22;19459;53.044;8.910;2023-06-14T11:58:29;30.60;74.80
33095;DHT22;19459;53.044;8.910;2023-06-14T12:00:55;31.00;72.50
33095;DHT22;19459;53.044;8.910;2023-06-14T12:03:25;30.60;71.30
33095;DHT22;19459;53.044;8.910;2023-06-14T12:06:08;29.30;70.00
33095;DHT22;19459;53.044;8.910;2023-06-14T12:08:38;28.80;72.30
33095;DHT22;19459;53.044;8.910;2023-06-14T12:11:12;28.20;72.50
33095;DHT22;19459;53.044;8.910;2023-06-14T12:13:39;27.50;73.70
33095;DHT22;19459;53.044;8.910;2023-06-14T12:16:09;27.30;74.50
33095;DHT22;19459;53.044;8.910;2023-06-14T12:18:37;27.80;74.80
33095;DHT22;19459;53.044;8.910;2023-06-14T12:21:08;28.40;76.60
33095;DHT22;19459;53.044;8.910;2023-06-14T12:23:49;29.20;75.00
33095;DHT22;19459;53.044;8.910;2023-06-14T12:26:17;29.80;73.00
33095;DHT22;19459;53.044;8.910;2023-06-14T12:28:45;30.10;74.80
33095;DHT22;19459;53.044;8.910;2023-06-14T12:31:12;30.20;71.60
33095;DHT22;19459;53.044;8.910;2023-06-14T12:33:40;30.50;71.80
33095;DHT22;19459;53.044;8.910;2023-06-14T12:36:08;30.20;71.40
33095;DHT22;19459;53.044;8.910;2023-06-14T12:38:35;30.50;72.40
33095;DHT22;19459;53.044;8.910;2023-06-14T12:41:02;30.80;70.40
33095;DHT22;19459;53.044;8.910;2023-06-14T12:43:28;30.80;71.30
33095;DHT22;19459;53.044;8.910;2023-06-14T12:45:54;30.90;72.10
33095;DHT22;19459;53.044;8.910;2023-06-14T12:48:20;30.50;70.00
33095;DHT22;19459;53.044;8.910;2023-06-14T12:50:47;30.60;70.20
33095;DHT22;19459;53.044;8.910;2023-06-14T12:53:13;30.40;69.60
33095;DHT22;19459;53.044;8.910;2023-06-14T12:55:39;30.80;71.00
33095;DHT22;19459;53.044;8.910;2023-06-14T12:58:05;30.40;69.60
33095;DHT22;19459;53.044;8.910;2023-06-14T13:00:31;29.80;70.20
33095;DHT22;19459;53.044;8.910;2023-06-14T13:02:57;29.20;70.30
33095;DHT22;19459;53.044;8.910;2023-06-14T13:05:24;28.70;71.70
33095;DHT22;19459;53.044;8.910;2023-06-14T13:07:50;28.40;72.40
33095;DHT22;19459;53.044;8.910;2023-06-14T13:10:17;27.90;73.40
33095;DHT22;19459;53.044;8.910;2023-06-14T13:12:43;27.70;73.40
33095;DHT22;19459;53.044;8.910;2023-06-14T13:15:09;27.50;74.30
33095;DHT22;19459;53.044;8.910;2023-06-14T13:17:35;27.30;73.80
33095;DHT22;19459;53.044;8.910;2023-06-14T13:20:05;27.30;74.80
33095;DHT22;19459;53.044;8.910;2023-06-14T13:22:32;27.20;74.50
33095;DHT22;19459;53.044;8.910;2023-06-14T13:24:58;27.10;74.20
33095;DHT22;19459;53.044;8.910;2023-06-14T13:27:25;27.40;76.60
33095;DHT22;19459;53.044;8.910;2023-06-14T13:29:51;27.80;74.10
33095;DHT22;19459;53.044;8.910;2023-06-14T13:32:17;28.40;74.10
33095;DHT22;19459;53.044;8.910;2023-06-14T13:34:43;29.00;75.30
33095;DHT22;19459;53.044;8.910;2023-06-14T13:37:08;29.60;74.00
33095;DHT22;19459;53.044;8.910;2023-06-14T13:39:34;29.60;71.20
33095;DHT22;19459;53.044;8.910;2023-06-14T13:42:03;29.30;72.20
33095;DHT22;19459;53.044;8.910;2023-06-14T13:44:29;28.70;71.20
33095;DHT22;19459;53.044;8.910;2023-06-14T13:46:54;28.20;73.30
33095;DHT22;19459;53.044;8.910;2023-06-14T13:49:20;27.90;73.40
33095;DHT22;19459;53.044;8.910;2023-06-14T13:51:46;27.90;73.40
33095;DHT22;19459;53.044;8.910;2023-06-14T13:54:13;27.60;74.10
33095;DHT22;19459;53.044;8.910;2023-06-14T13:56:40;27.40;74.00
33095;DHT22;19459;53.044;8.910;2023-06-14T13:59:07;27.50;75.00
33095;DHT22;19459;53.044;8.910;2023-06-14T14:01:32;27.20;74.40
33095;DHT22;19459;53.044;8.910;2023-06-14T14:03:58;27.50;76.70
33095;DHT22;19459;53.044;8.910;2023-06-14T14:06:26;28.00;76.90
33095;DHT22;19459;53.044;8.910;2023-06-14T14:08:52;28.50;75.80
33095;DHT22;19459;53.044;8.910;2023-06-14T14:11:18;28.80;75.70
33095;DHT22;19459;53.044;8.910;2023-06-14T14:13:44;29.20;73.00
33095;DHT22;19459;53.044;8.910;2023-06-14T14:16:11;29.70;71.60
33095;DHT22;19459;53.044;8.910;2023-06-14T14:18:38;30.10;73.40
33095;DHT22;19459;53.044;8.910;2023-06-14T14:21:04;30.50;72.10
33095;DHT22;19459;53.044;8.910;2023-06-14T14:23:30;30.60;71.00
33095;DHT22;19459;53.044;8.910;2023-06-14T14:25:56;30.40;70.00
33095;DHT22;19459;53.044;8.910;2023-06-14T14:28:22;29.80;70.60
33095;DHT22;19459;53.044;8.910;2023-06-14T14:30:48;29.20;71.90
33095;DHT22;19459;53.044;8.910;2023-06-14T14:33:14;28.70;71.60
33095;DHT22;19459;53.044;8.910;2023-06-14T14:35:46;28.10;74.30
33095;DHT22;19459;53.044;8.910;2023-06-14T14:38:13;27.60;72.70
33095;DHT22;19459;53.044;8.910;2023-06-14T14:40:41;27.50;72.90
33095;DHT22;19459;53.044;8.910;2023-06-14T14:43:07;27.30;72.50
33095;DHT22;19459;53.044;8.910;2023-06-14T14:45:33;27.10;72.50
33095;DHT22;19459;53.044;8.910;2023-06-14T14:48:00;27.00;73.10
33095;DHT22;19459;53.044;8.910;2023-06-14T14:50:27;26.90;73.60
33095;DHT22;19459;53.044;8.910;2023-06-14T14:52:53;26.90;74.80
33095;DHT22;19459;53.044;8.910;2023-06-14T14:55:18;27.00;75.50
33095;DHT22;19459;53.044;8.910;2023-06-14T14:57:46;27.00;73.00
33095;DHT22;19459;53.044;8.910;2023-06-14T15:00:13;27.60;75.60
33095;DHT22;19459;53.044;8.910;2023-06-14T15:02:39;28.10;74.60
33095;DHT22;19459;53.044;8.910;2023-06-14T15:05:06;28.20;72.70
33095;DHT22;19459;53.044;8.910;2023-06-14T15:07:32;28.00;71.60
33095;DHT22;19459;53.044;8.910;2023-06-14T15:10:02;27.80;73.00
33095;DHT22;19459;53.044;8.910;2023-06-14T15:12:29;27.40;72.80
33095;DHT22;19459;53.044;8.910;2023-06-14T15:14:55;27.20;73.00
33095;DHT22;19459;53.044;8.910;2023-06-14T15:17:21;26.90;73.70
33095;DHT22;19459;53.044;8.910;2023-06-14T15:19:47;26.70;74.40
33095;DHT22;19459;53.044;8.910;2023-06-14T15:22:14;26.50;74.80
33095;DHT22;19459;53.044;8.910;2023-06-14T15:24:41;26.30;74.00
33095;DHT22;19459;53.044;8.910;2023-06-14T15:27:07;26.20;75.50
33095;DHT22;19459;53.044;8.910;2023-06-14T15:29:33;26.20;74.90
33095;DHT22;19459;53.044;8.910;2023-06-14T15:32:01;26.30;76.10
33095;DHT22;19459;53.044;8.910;2023-06-14T15:34:27;26.40;75.70
33095;DHT22;19459;53.044;8.910;2023-06-14T15:36:52;26.40;75.60
33095;DHT22;19459;53.044;8.910;2023-06-14T15:39:18;26.50;77.70
33095;DHT22;19459;53.044;8.910;2023-06-14T15:41:44;26.70;77.50